createdAt,value
2019-04-23T00:00:08.762Z,1012.31
2019-04-23T00:01:14.842Z,1012.32
2019-04-23T00:02:06.608Z,1012.28
2019-04-23T00:03:18.752Z,1012.31
2019-04-23T00:04:08.445Z,1012.28
2019-04-23T00:05:01.782Z,1012.34
2019-04-23T00:06:15.525Z,1012.31
2019-04-23T00:07:15.767Z,1012.26
2019-04-23T00:09:12.563Z,1012.27
2019-04-23T00:10:13.926Z,1012.26
2019-04-23T00:11:05.300Z,1012.30
2019-04-23T00:12:12.676Z,1012.29
2019-04-23T00:12:59.258Z,1012.25
2019-04-23T00:14:08.449Z,1012.32
2019-04-23T00:15:07.378Z,1012.27
2019-04-23T00:16:12.887Z,1012.26
2019-04-23T00:17:04.658Z,1012.30
2019-04-23T00:18:09.658Z,1012.22
2019-04-23T00:18:58.882Z,1012.24
2019-04-23T00:20:11.183Z,1012.23
2019-04-23T00:21:11.253Z,1012.19
2019-04-23T00:22:07.292Z,1012.20
2019-04-23T00:23:07.804Z,1012.21
2019-04-23T00:24:12.076Z,1012.24
2019-04-23T00:26:24.041Z,1012.12
2019-04-23T00:27:19.170Z,1012.15
2019-04-23T00:29:18.966Z,1012.15
2019-04-23T00:31:07.889Z,1012.11
2019-04-23T00:32:10.087Z,1012.15
2019-04-23T00:33:05.606Z,1012.17
2019-04-23T00:34:01.048Z,1012.13
2019-04-23T00:35:05.971Z,1012.12
2019-04-23T00:36:03.164Z,1012.08
2019-04-23T00:37:11.274Z,1012.09
2019-04-23T00:38:12.084Z,1012.09
2019-04-23T00:39:01.267Z,1012.08
2019-04-23T00:40:03.246Z,1012.14
2019-04-23T00:41:02.948Z,1012.13
2019-04-23T00:42:08.280Z,1012.15
2019-04-23T00:43:03.811Z,1012.09
2019-04-23T00:45:00.231Z,1012.14
2019-04-23T00:45:59.702Z,1012.17
2019-04-23T00:47:00.985Z,1012.08
2019-04-23T00:48:12.733Z,1012.10
2019-04-23T00:49:06.092Z,1012.08
2019-04-23T00:50:19.335Z,1012.09
2019-04-23T00:50:58.226Z,1012.08
2019-04-23T00:52:05.898Z,1012.16
2019-04-23T00:53:04.586Z,1012.08
2019-04-23T00:54:06.440Z,1012.05
2019-04-23T00:56:20.637Z,1012.04
2019-04-23T00:57:07.388Z,1012.04
2019-04-23T00:58:10.396Z,1012.06
2019-04-23T00:59:00.419Z,1012.04
2019-04-23T01:00:13.913Z,1012.06
2019-04-23T01:01:02.481Z,1012.00
2019-04-23T01:02:03.898Z,1012.04
2019-04-23T01:03:05.885Z,1012.04
2019-04-23T01:04:18.518Z,1012.01
2019-04-23T01:06:21.060Z,1012.01
2019-04-23T01:07:04.336Z,1011.97
2019-04-23T01:08:07.074Z,1012.01
2019-04-23T01:09:03.768Z,1011.96
2019-04-23T01:10:10.223Z,1011.97
2019-04-23T01:11:06.310Z,1011.91
2019-04-23T01:12:09.328Z,1011.97
2019-04-23T01:13:11.307Z,1012.01
2019-04-23T01:14:04.852Z,1011.97
2019-04-23T01:15:02.809Z,1012.04
2019-04-23T01:16:05.429Z,1011.99
2019-04-23T01:17:08.440Z,1011.98
2019-04-23T01:19:24.511Z,1011.98
2019-04-23T01:20:01.674Z,1011.97
2019-04-23T01:20:53.567Z,1011.94
2019-04-23T01:21:43.295Z,1011.90
2019-04-23T01:22:42.225Z,1011.98
2019-04-23T01:23:51.888Z,1011.88
2019-04-23T01:24:44.232Z,1011.88
2019-04-23T01:25:53.759Z,1011.85
2019-04-23T01:27:23.710Z,1011.89
2019-04-23T01:28:11.031Z,1011.84
2019-04-23T01:29:06.738Z,1011.85
2019-04-23T01:30:09.643Z,1011.82
2019-04-23T01:31:10.224Z,1011.80
2019-04-23T01:32:13.401Z,1011.82
2019-04-23T01:33:11.063Z,1011.84
2019-04-23T01:34:08.405Z,1011.79
2019-04-23T01:35:12.789Z,1011.74
2019-04-23T01:36:20.627Z,1011.71
2019-04-23T01:37:15.176Z,1011.75
2019-04-23T01:38:04.512Z,1011.73
2019-04-23T01:39:23.198Z,1011.69
2019-04-23T01:40:16.768Z,1011.69
2019-04-23T01:41:07.857Z,1011.73
2019-04-23T01:42:12.959Z,1011.61
2019-04-23T01:43:03.597Z,1011.66
2019-04-23T01:44:06.933Z,1011.67
2019-04-23T01:45:16.223Z,1011.67
2019-04-23T01:46:09.836Z,1011.59
2019-04-23T01:47:09.620Z,1011.63
2019-04-23T01:48:22.455Z,1011.64
2019-04-23T01:49:07.109Z,1011.59
2019-04-23T01:51:04.077Z,1011.61
2019-04-23T01:52:08.206Z,1011.59
2019-04-23T01:54:06.924Z,1011.54
2019-04-23T01:55:09.650Z,1011.49
2019-04-23T01:56:14.422Z,1011.57
2019-04-23T01:57:11.472Z,1011.54
2019-04-23T01:58:25.886Z,1011.51
2019-04-23T01:59:16.143Z,1011.50
2019-04-23T02:00:14.209Z,1011.48
2019-04-23T02:01:06.519Z,1011.49
2019-04-23T02:02:05.057Z,1011.46
2019-04-23T02:03:12.200Z,1011.49
2019-04-23T02:04:11.277Z,1011.43
2019-04-23T02:06:07.457Z,1011.41
2019-04-23T02:07:06.563Z,1011.39
2019-04-23T02:09:05.284Z,1011.37
2019-04-23T02:10:34.438Z,1011.38
2019-04-23T02:12:04.475Z,1011.39
2019-04-23T02:13:12.089Z,1011.37
2019-04-23T02:14:24.846Z,1011.38
2019-04-23T02:15:13.852Z,1011.36
2019-04-23T02:16:05.112Z,1011.35
2019-04-23T02:17:10.238Z,1011.27
2019-04-23T02:20:09.179Z,1011.31
2019-04-23T02:21:07.011Z,1011.30
2019-04-23T02:22:05.184Z,1011.28
2019-04-23T02:23:11.621Z,1011.29
2019-04-23T02:24:06.861Z,1011.30
2019-04-23T02:25:13.377Z,1011.31
2019-04-23T02:26:04.782Z,1011.26
2019-04-23T02:27:05.630Z,1011.27
2019-04-23T02:28:10.727Z,1011.25
2019-04-23T02:29:26.603Z,1011.32
2019-04-23T02:31:25.399Z,1011.23
2019-04-23T02:35:17.012Z,1011.16
2019-04-23T02:36:07.382Z,1011.23
2019-04-23T02:37:15.050Z,1011.19
2019-04-23T02:39:01.001Z,1011.11
2019-04-23T02:40:23.648Z,1011.09
2019-04-23T02:41:20.352Z,1011.13
2019-04-23T02:42:41.131Z,1011.09
2019-04-23T02:43:13.049Z,1011.07
2019-04-23T02:45:09.389Z,1011.07
2019-04-23T02:46:05.481Z,1011.12
2019-04-23T02:48:19.931Z,1011.14
2019-04-23T02:50:34.919Z,1011.09
2019-04-23T02:51:10.723Z,1011.07
2019-04-23T02:52:16.063Z,1011.04
2019-04-23T02:53:20.071Z,1011.05
2019-04-23T02:56:16.140Z,1011.00
2019-04-23T02:57:13.324Z,1011.00
2019-04-23T02:58:19.168Z,1010.94
2019-04-23T02:59:21.412Z,1010.99
2019-04-23T03:00:18.585Z,1010.99
2019-04-23T03:02:30.834Z,1010.96
2019-04-23T03:03:22.533Z,1011.00
2019-04-23T03:04:19.762Z,1010.93
2019-04-23T03:05:11.199Z,1010.96
2019-04-23T03:07:15.590Z,1010.96
2019-04-23T03:08:06.274Z,1010.92
2019-04-23T03:09:13.381Z,1010.95
2019-04-23T03:12:18.479Z,1010.87
2019-04-23T03:13:19.365Z,1010.87
2019-04-23T03:14:18.560Z,1010.90
2019-04-23T03:15:21.390Z,1010.90
2019-04-23T03:16:21.832Z,1010.90
2019-04-23T03:17:11.143Z,1010.93
2019-04-23T03:19:09.788Z,1010.84
2019-04-23T03:20:15.681Z,1010.90
2019-04-23T03:26:34.823Z,1010.86
2019-04-23T03:28:23.181Z,1010.82
2019-04-23T03:32:51.801Z,1010.75
2019-04-23T03:34:30.247Z,1010.82
2019-04-23T03:35:17.778Z,1010.77
2019-04-23T03:37:26.462Z,1010.78
2019-04-23T03:38:20.499Z,1010.77
2019-04-23T03:38:55.823Z,1010.74
2019-04-23T03:42:12.032Z,1010.75
2019-04-23T03:44:02.137Z,1010.68
2019-04-23T03:45:16.775Z,1010.75
2019-04-23T03:46:15.686Z,1010.73
2019-04-23T03:47:10.803Z,1010.74
2019-04-23T03:48:14.892Z,1010.75
2019-04-23T03:50:15.318Z,1010.77
2019-04-23T03:51:13.772Z,1010.75
2019-04-23T03:53:22.558Z,1010.73
2019-04-23T03:55:10.341Z,1010.67
2019-04-23T03:55:23.161Z,1010.74
2019-04-23T03:56:14.544Z,1010.74
2019-04-23T03:57:18.529Z,1010.69
2019-04-23T03:58:12.193Z,1010.67
2019-04-23T03:59:10.713Z,1010.70
2019-04-23T04:00:12.496Z,1010.66
2019-04-23T04:01:16.232Z,1010.69
2019-04-23T04:03:27.577Z,1010.73
2019-04-23T04:05:17.762Z,1010.69
2019-04-23T04:10:06.716Z,1010.68
2019-04-23T04:11:14.543Z,1010.75
2019-04-23T04:12:17.331Z,1010.72
2019-04-23T04:13:15.773Z,1010.70
2019-04-23T04:14:21.307Z,1010.74
2019-04-23T04:15:18.306Z,1010.72
2019-04-23T04:19:22.594Z,1010.72
2019-04-23T04:20:15.222Z,1010.75
2019-04-23T04:21:14.491Z,1010.70
2019-04-23T04:22:20.717Z,1010.66
2019-04-23T04:23:13.536Z,1010.68
2019-04-23T04:24:31.279Z,1010.71
2019-04-23T04:25:14.363Z,1010.67
2019-04-23T04:26:17.866Z,1010.67
2019-04-23T04:27:12.891Z,1010.67
2019-04-23T04:29:30.326Z,1010.67
2019-04-23T04:30:14.983Z,1010.62
2019-04-23T04:31:16.351Z,1010.63
2019-04-23T04:32:15.093Z,1010.68
2019-04-23T04:33:15.138Z,1010.64
2019-04-23T04:34:33.017Z,1010.66
2019-04-23T04:35:16.130Z,1010.62
2019-04-23T04:36:13.955Z,1010.66
2019-04-23T04:38:30.233Z,1010.62
2019-04-23T04:39:03.326Z,1010.65
2019-04-23T04:41:05.504Z,1010.68
2019-04-23T04:42:14.869Z,1010.61
2019-04-23T04:45:14.139Z,1010.66
2019-04-23T04:47:09.818Z,1010.68
2019-04-23T04:48:00.489Z,1010.67
2019-04-23T04:50:14.855Z,1010.65
2019-04-23T04:51:19.426Z,1010.64
2019-04-23T04:54:21.598Z,1010.59
2019-04-23T04:56:14.331Z,1010.66
2019-04-23T04:57:13.101Z,1010.65
2019-04-23T04:58:07.219Z,1010.70
2019-04-23T05:00:13.363Z,1010.58
2019-04-23T05:01:13.860Z,1010.59
2019-04-23T05:02:16.221Z,1010.56
2019-04-23T05:03:22.209Z,1010.62
2019-04-23T05:04:18.211Z,1010.57
2019-04-23T05:05:47.751Z,1010.61
2019-04-23T05:06:24.478Z,1010.54
2019-04-23T05:07:09.340Z,1010.54
2019-04-23T05:08:09.232Z,1010.49
2019-04-23T05:09:16.995Z,1010.48
2019-04-23T05:12:17.047Z,1010.46
2019-04-23T05:13:22.729Z,1010.44
2019-04-23T05:14:26.186Z,1010.48
2019-04-23T05:16:07.718Z,1010.45
2019-04-23T05:17:08.618Z,1010.42
2019-04-23T05:19:19.846Z,1010.47
2019-04-23T05:20:05.127Z,1010.44
2019-04-23T05:24:08.943Z,1010.45
2019-04-23T05:24:57.109Z,1010.36
2019-04-23T05:26:01.102Z,1010.37
2019-04-23T05:27:05.542Z,1010.35
2019-04-23T05:30:07.852Z,1010.42
2019-04-23T05:31:08.641Z,1010.30
2019-04-23T05:31:58.218Z,1010.40
2019-04-23T05:33:05.659Z,1010.39
2019-04-23T05:34:04.498Z,1010.42
2019-04-23T05:35:07.430Z,1010.38
2019-04-23T05:36:12.653Z,1010.34
2019-04-23T05:37:01.880Z,1010.34
2019-04-23T05:38:29.138Z,1010.30
2019-04-23T05:39:12.084Z,1010.29
2019-04-23T05:40:08.511Z,1010.27
2019-04-23T05:41:10.378Z,1010.35
2019-04-23T05:42:01.474Z,1010.24
2019-04-23T05:43:08.181Z,1010.22
2019-04-23T05:44:06.911Z,1010.27
2019-04-23T05:46:09.623Z,1010.21
2019-04-23T05:47:11.489Z,1010.16
2019-04-23T05:48:07.067Z,1010.17
2019-04-23T05:49:07.623Z,1010.18
2019-04-23T05:50:15.564Z,1010.15
2019-04-23T05:51:06.083Z,1010.15
2019-04-23T05:53:07.317Z,1010.16
2019-04-23T05:54:01.816Z,1010.20
2019-04-23T05:55:01.614Z,1010.12
2019-04-23T05:56:01.827Z,1010.35
2019-04-23T05:58:05.169Z,1010.14
2019-04-23T06:00:04.026Z,1010.23
2019-04-23T06:01:05.840Z,1010.17
2019-04-23T06:02:07.552Z,1010.22
2019-04-23T06:03:04.914Z,1010.21
2019-04-23T06:05:05.980Z,1010.19
2019-04-23T06:06:02.992Z,1010.19
2019-04-23T06:07:16.713Z,1010.16
2019-04-23T06:08:05.626Z,1010.22
2019-04-23T06:11:02.527Z,1010.23
2019-04-23T06:12:02.866Z,1010.22
2019-04-23T06:13:03.059Z,1010.20
2019-04-23T06:14:09.761Z,1010.24
2019-04-23T06:14:57.607Z,1010.24
2019-04-23T06:15:57.799Z,1010.28
2019-04-23T06:17:09.374Z,1010.17
2019-04-23T06:20:03.811Z,1010.16
2019-04-23T06:21:02.987Z,1010.19
2019-04-23T06:22:07.463Z,1010.19
2019-04-23T06:23:09.294Z,1010.21
2019-04-23T06:24:10.403Z,1010.17
2019-04-23T06:25:00.955Z,1010.12
2019-04-23T06:26:22.507Z,1010.07
2019-04-23T06:28:01.584Z,1010.09
2019-04-23T06:29:07.099Z,1010.08
2019-04-23T06:29:59.486Z,1010.15
2019-04-23T06:31:02.384Z,1010.16
2019-04-23T06:32:14.921Z,1010.04
2019-04-23T06:32:59.279Z,1010.09
2019-04-23T06:34:04.155Z,1009.97
2019-04-23T06:34:56.585Z,1010.03
2019-04-23T06:36:05.543Z,1009.94
2019-04-23T06:36:58.887Z,1010.02
2019-04-23T06:38:28.111Z,1010.03
2019-04-23T06:38:57.228Z,1010.05
2019-04-23T06:40:00.393Z,1010.06
2019-04-23T06:41:06.759Z,1010.03
2019-04-23T06:42:00.368Z,1010.06
2019-04-23T06:43:02.735Z,1009.94
2019-04-23T06:44:08.828Z,1009.94
2019-04-23T06:45:59.385Z,1009.94
2019-04-23T06:48:01.650Z,1009.85
2019-04-23T06:49:02.109Z,1009.96
2019-04-23T06:51:04.236Z,1009.89
2019-04-23T06:52:54.605Z,1009.86
2019-04-23T06:53:56.763Z,1009.89
2019-04-23T06:55:01.386Z,1009.92
2019-04-23T06:56:08.066Z,1009.86
2019-04-23T06:57:09.070Z,1009.86
2019-04-23T06:58:06.351Z,1009.94
2019-04-23T06:59:00.818Z,1009.88
2019-04-23T07:00:02.422Z,1009.81
2019-04-23T07:01:03.346Z,1009.82
2019-04-23T07:02:06.278Z,1009.85
2019-04-23T07:02:59.705Z,1009.88
2019-04-23T07:06:11.449Z,1009.88
2019-04-23T07:07:29.715Z,1009.91
2019-04-23T07:09:07.831Z,1009.83
2019-04-23T07:09:57.936Z,1009.90
2019-04-23T07:11:08.096Z,1009.91
2019-04-23T07:11:59.048Z,1009.83
2019-04-23T07:13:03.157Z,1009.85
2019-04-23T07:13:58.654Z,1009.82
2019-04-23T07:15:11.653Z,1009.82
2019-04-23T07:15:58.732Z,1009.79
2019-04-23T07:16:57.091Z,1009.76
2019-04-23T07:17:54.295Z,1009.82
2019-04-23T07:19:04.623Z,1009.73
2019-04-23T07:20:02.208Z,1009.69
2019-04-23T07:21:00.652Z,1009.72
2019-04-23T07:22:12.227Z,1009.78
2019-04-23T07:23:04.959Z,1009.70
2019-04-23T07:25:00.072Z,1009.75
2019-04-23T07:26:06.103Z,1009.63
2019-04-23T07:26:55.905Z,1009.60
2019-04-23T07:27:59.027Z,1009.66
2019-04-23T07:30:03.605Z,1009.54
2019-04-23T07:31:02.174Z,1009.65
2019-04-23T07:31:59.312Z,1009.57
2019-04-23T07:32:56.648Z,1009.56
2019-04-23T07:34:01.161Z,1009.68
2019-04-23T07:36:00.510Z,1009.61
2019-04-23T07:37:16.096Z,1009.59
2019-04-23T07:38:11.070Z,1009.53
2019-04-23T07:39:20.567Z,1009.59
2019-04-23T07:40:19.663Z,1009.60
2019-04-23T07:41:14.520Z,1009.57
2019-04-23T07:42:09.367Z,1009.52
2019-04-23T07:43:00.024Z,1009.60
2019-04-23T07:44:07.798Z,1009.62
2019-04-23T07:46:08.154Z,1009.54
2019-04-23T07:47:13.118Z,1009.53
2019-04-23T07:48:08.103Z,1009.52
2019-04-23T07:48:56.721Z,1009.50
2019-04-23T07:50:09.827Z,1009.41
2019-04-23T07:50:55.163Z,1009.51
2019-04-23T07:52:04.808Z,1009.52
2019-04-23T07:53:06.771Z,1009.52
2019-04-23T07:54:16.304Z,1009.52
2019-04-23T07:55:02.289Z,1009.48
2019-04-23T07:56:03.796Z,1009.46
2019-04-23T07:58:06.508Z,1009.44
2019-04-23T07:59:05.292Z,1009.45
2019-04-23T08:00:02.581Z,1009.43
2019-04-23T08:00:58.204Z,1009.50
2019-04-23T08:02:12.843Z,1009.45
2019-04-23T08:03:08.579Z,1009.37
2019-04-23T08:04:04.588Z,1009.27
2019-04-23T08:05:58.456Z,1009.33
2019-04-23T08:07:00.795Z,1009.35
2019-04-23T08:08:56.617Z,1009.26
2019-04-23T08:10:00.254Z,1009.48
2019-04-23T08:11:16.082Z,1009.35
2019-04-23T08:11:56.281Z,1009.40
2019-04-23T08:13:00.952Z,1009.37
2019-04-23T08:13:58.261Z,1009.43
2019-04-23T08:14:59.844Z,1009.38
2019-04-23T08:16:07.043Z,1009.37
2019-04-23T08:17:00.691Z,1009.44
2019-04-23T08:17:59.010Z,1009.39
2019-04-23T08:20:03.021Z,1009.39
2019-04-23T08:20:57.097Z,1009.35
2019-04-23T08:22:06.627Z,1009.30
2019-04-23T08:23:03.909Z,1009.32
2019-04-23T08:24:01.927Z,1009.31
2019-04-23T08:25:08.435Z,1009.42
2019-04-23T08:26:02.402Z,1009.28
2019-04-23T08:26:59.047Z,1009.27
2019-04-23T08:27:59.386Z,1009.21
2019-04-23T08:29:05.872Z,1009.15
2019-04-23T08:29:55.702Z,1009.15
2019-04-23T08:31:00.792Z,1009.15
2019-04-23T08:32:00.249Z,1009.14
2019-04-23T08:32:58.827Z,1009.13
2019-04-23T08:34:15.009Z,1009.13
2019-04-23T08:36:09.486Z,1009.04
2019-04-23T08:37:07.219Z,1009.06
2019-04-23T08:38:11.978Z,1009.09
2019-04-23T08:39:00.053Z,1009.04
2019-04-23T08:39:52.131Z,1008.98
2019-04-23T08:41:14.224Z,1009.00
2019-04-23T08:42:21.546Z,1009.00
2019-04-23T08:43:07.504Z,1008.97
2019-04-23T08:44:06.909Z,1008.91
2019-04-23T08:45:58.382Z,1008.92
2019-04-23T08:47:03.315Z,1008.89
2019-04-23T08:48:07.895Z,1008.77
2019-04-23T08:49:06.500Z,1008.86
2019-04-23T08:51:03.493Z,1008.86
2019-04-23T08:52:10.167Z,1008.80
2019-04-23T08:53:03.748Z,1008.77
2019-04-23T08:53:55.503Z,1008.81
2019-04-23T08:57:02.709Z,1008.78
2019-04-23T08:57:57.309Z,1008.68
2019-04-23T08:58:59.517Z,1008.69
2019-04-23T08:59:58.769Z,1008.64
2019-04-23T09:01:05.779Z,1008.81
2019-04-23T09:02:15.946Z,1008.70
2019-04-23T09:03:02.391Z,1008.63
2019-04-23T09:03:56.038Z,1008.78
2019-04-23T09:05:00.763Z,1008.67
2019-04-23T09:05:58.006Z,1008.64
2019-04-23T09:07:04.499Z,1008.62
2019-04-23T09:08:56.838Z,1008.58
2019-04-23T09:11:54.282Z,1008.56
2019-04-23T09:13:10.145Z,1008.65
2019-04-23T09:13:55.639Z,1008.54
2019-04-23T09:15:01.618Z,1008.64
2019-04-23T09:15:58.222Z,1008.42
2019-04-23T09:17:03.494Z,1008.53
2019-04-23T09:19:07.784Z,1008.47
2019-04-23T09:20:11.884Z,1008.41
2019-04-23T09:20:55.243Z,1008.46
2019-04-23T09:22:00.535Z,1008.40
2019-04-23T09:22:50.400Z,1008.36
2019-04-23T09:25:02.638Z,1008.32
2019-04-23T09:27:00.128Z,1008.35
2019-04-23T09:28:05.269Z,1008.29
2019-04-23T09:28:57.995Z,1008.27
2019-04-23T09:30:00.662Z,1008.21
2019-04-23T09:31:04.011Z,1008.20
2019-04-23T09:32:13.550Z,1008.20
2019-04-23T09:33:00.724Z,1008.13
2019-04-23T09:33:58.037Z,1008.15
2019-04-23T09:35:52.525Z,1008.13
2019-04-23T09:38:59.805Z,1008.12
2019-04-23T09:40:04.826Z,1008.06
2019-04-23T09:41:53.635Z,1008.10
2019-04-23T09:43:00.633Z,1007.98
2019-04-23T09:44:09.454Z,1007.96
2019-04-23T09:45:56.358Z,1007.96
2019-04-23T09:47:00.712Z,1007.96
2019-04-23T09:48:03.580Z,1007.90
2019-04-23T09:49:20.831Z,1007.92
2019-04-23T09:50:01.697Z,1007.93
2019-04-23T09:50:54.138Z,1007.83
2019-04-23T09:52:00.746Z,1007.64
2019-04-23T09:53:11.532Z,1007.87
2019-04-23T09:53:58.078Z,1007.84
2019-04-23T09:55:04.664Z,1007.87
2019-04-23T09:56:10.348Z,1007.86
2019-04-23T09:56:52.685Z,1007.91
2019-04-23T09:59:02.358Z,1007.78
2019-04-23T09:59:59.150Z,1007.81
2019-04-23T10:00:54.486Z,1007.75
2019-04-23T10:01:50.145Z,1007.84
2019-04-23T10:02:47.334Z,1007.66
2019-04-23T10:03:40.587Z,1007.64
2019-04-23T10:04:44.930Z,1007.65
2019-04-23T10:05:39.989Z,1007.72
2019-04-23T10:06:33.354Z,1007.72
2019-04-23T10:07:40.572Z,1007.69
2019-04-23T10:08:36.323Z,1007.64
2019-04-23T10:09:30.094Z,1007.67
2019-04-23T10:10:30.264Z,1007.60
2019-04-23T10:11:30.535Z,1007.62
2019-04-23T10:12:30.238Z,1007.59
2019-04-23T10:13:29.818Z,1007.61
2019-04-23T10:14:30.421Z,1007.63
2019-04-23T10:15:36.206Z,1007.55
2019-04-23T10:16:33.471Z,1007.53
2019-04-23T10:17:29.537Z,1007.45
2019-04-23T10:18:30.927Z,1007.39
2019-04-23T10:19:30.785Z,1007.53
2019-04-23T10:20:30.876Z,1007.46
2019-04-23T10:21:31.059Z,1007.38
2019-04-23T10:22:32.248Z,1007.38
2019-04-23T10:23:29.622Z,1007.33
2019-04-23T10:24:30.846Z,1007.30
2019-04-23T10:25:30.165Z,1007.40
2019-04-23T10:26:30.277Z,1007.27
2019-04-23T10:27:29.535Z,1007.32
2019-04-23T10:28:29.696Z,1007.34
2019-04-23T10:29:29.913Z,1007.30
2019-04-23T10:30:30.947Z,1007.39
2019-04-23T10:31:29.309Z,1007.37
2019-04-23T10:32:29.808Z,1007.36
2019-04-23T10:33:29.641Z,1007.24
2019-04-23T10:34:30.493Z,1007.19
2019-04-23T10:35:39.068Z,1007.25
2019-04-23T10:36:31.685Z,1007.38
2019-04-23T10:37:36.763Z,1007.23
2019-04-23T10:38:30.738Z,1007.33
2019-04-23T10:39:35.294Z,1007.28
2019-04-23T10:40:33.867Z,1007.26
2019-04-23T10:41:30.600Z,1007.22
2019-04-23T10:42:32.070Z,1007.21
2019-04-23T10:43:31.491Z,1007.21
2019-04-23T10:44:30.641Z,1007.18
2019-04-23T10:45:44.719Z,1007.11
2019-04-23T10:46:48.886Z,1007.05
2019-04-23T10:48:03.728Z,1007.10
2019-04-23T10:49:00.616Z,1007.11
2019-04-23T10:50:01.078Z,1007.13
2019-04-23T10:51:59.613Z,1007.05
2019-04-23T10:53:05.062Z,1007.15
2019-04-23T10:54:04.806Z,1007.07
2019-04-23T10:55:03.248Z,1007.09
2019-04-23T10:57:56.343Z,1007.17
2019-04-23T10:58:54.187Z,1007.10
2019-04-23T10:59:53.569Z,1007.12
2019-04-23T11:01:07.320Z,1007.05
2019-04-23T11:02:22.234Z,1007.06
2019-04-23T11:03:00.615Z,1007.02
2019-04-23T11:04:11.907Z,1007.01
2019-04-23T11:04:57.326Z,1007.02
2019-04-23T11:06:00.183Z,1006.94
2019-04-23T11:07:07.262Z,1006.91
2019-04-23T11:07:47.064Z,1006.93
2019-04-23T11:08:50.132Z,1006.96
2019-04-23T11:11:00.162Z,1006.98
2019-04-23T11:12:01.762Z,1006.91
2019-04-23T11:14:01.232Z,1006.85
2019-04-23T11:15:10.526Z,1006.90
2019-04-23T11:20:58.675Z,1006.71
2019-04-23T11:22:05.848Z,1006.71
2019-04-23T11:22:51.698Z,1006.79
2019-04-23T11:24:02.058Z,1006.68
2019-04-23T11:25:23.630Z,1006.69
2019-04-23T11:25:48.636Z,1006.76
2019-04-23T11:27:00.469Z,1006.66
2019-04-23T11:28:02.959Z,1006.72
2019-04-23T11:28:51.899Z,1006.60
2019-04-23T11:30:00.509Z,1006.51
2019-04-23T11:31:09.063Z,1006.58
2019-04-23T11:32:06.769Z,1006.44
2019-04-23T11:34:01.107Z,1006.56
2019-04-23T11:35:14.292Z,1006.48
2019-04-23T11:36:18.914Z,1006.47
2019-04-23T11:38:58.728Z,1006.46
2019-04-23T11:40:01.646Z,1006.45
2019-04-23T11:40:48.990Z,1006.45
2019-04-23T11:42:26.259Z,1006.47
2019-04-23T11:43:14.318Z,1006.40
2019-04-23T11:43:54.462Z,1006.51
2019-04-23T11:44:56.387Z,1006.35
2019-04-23T11:51:26.789Z,1006.34
2019-04-23T11:52:56.909Z,1006.18
2019-04-23T11:54:01.541Z,1006.27
2019-04-23T11:55:00.955Z,1006.30
2019-04-23T11:57:14.220Z,1006.28
2019-04-23T11:58:08.408Z,1006.34
2019-04-23T11:58:52.456Z,1006.27
2019-04-23T12:01:02.231Z,1006.22
2019-04-23T12:02:07.343Z,1006.24
2019-04-23T12:04:05.425Z,1006.19
2019-04-23T12:05:02.333Z,1006.19
2019-04-23T12:06:00.298Z,1006.24
2019-04-23T12:06:59.740Z,1006.21
2019-04-23T12:08:03.797Z,1006.21
2019-04-23T12:09:02.911Z,1006.18
2019-04-23T12:11:24.172Z,1006.11
2019-04-23T12:12:59.711Z,1006.13
2019-04-23T12:14:04.237Z,1006.08
2019-04-23T12:14:51.292Z,1006.04
2019-04-23T12:15:53.935Z,1006.02
2019-04-23T12:17:08.036Z,1006.09
2019-04-23T12:19:19.310Z,1005.95
2019-04-23T12:20:21.412Z,1006.13
2019-04-23T12:20:52.749Z,1006.09
2019-04-23T12:22:04.664Z,1006.15
2019-04-23T12:24:15.681Z,1006.07
2019-04-23T12:25:08.504Z,1006.06
2019-04-23T12:26:03.125Z,1006.07
2019-04-23T12:27:00.413Z,1006.12
2019-04-23T12:27:44.058Z,1006.31
2019-04-23T12:28:57.708Z,1006.23
2019-04-23T12:29:55.349Z,1006.27
2019-04-23T12:30:57.309Z,1006.09
2019-04-23T12:32:08.465Z,1006.06
2019-04-23T12:33:10.587Z,1006.04
2019-04-23T12:34:00.746Z,1006.18
2019-04-23T12:35:51.534Z,1006.14
2019-04-23T12:36:50.943Z,1005.91
2019-04-23T12:38:58.129Z,1006.06
2019-04-23T12:40:01.546Z,1006.01
2019-04-23T12:42:01.838Z,1006.03
2019-04-23T12:43:12.694Z,1005.99
2019-04-23T12:43:51.642Z,1006.07
2019-04-23T12:45:46.856Z,1005.99
2019-04-23T12:47:04.872Z,1006.09
2019-04-23T12:49:07.034Z,1006.03
2019-04-23T12:50:31.180Z,1006.09
2019-04-23T12:51:12.667Z,1006.03
2019-04-23T12:51:55.502Z,1005.97
2019-04-23T12:53:07.081Z,1005.97
2019-04-23T12:53:49.339Z,1005.88
2019-04-23T12:55:15.314Z,1005.98
2019-04-23T12:55:50.559Z,1006.09
2019-04-23T12:57:50.752Z,1006.03
2019-04-23T12:58:46.484Z,1005.98
2019-04-23T12:59:58.445Z,1006.05
2019-04-23T13:00:45.573Z,1005.77
2019-04-23T13:01:55.909Z,1005.91
2019-04-23T13:02:58.927Z,1005.92
2019-04-23T13:03:49.194Z,1005.84
2019-04-23T13:04:51.723Z,1005.88
2019-04-23T13:05:42.171Z,1005.82
2019-04-23T13:06:50.756Z,1005.84
2019-04-23T13:07:53.944Z,1005.88
2019-04-23T13:08:55.520Z,1005.89
2019-04-23T13:10:01.605Z,1005.84
2019-04-23T13:10:50.137Z,1005.87
2019-04-23T13:12:20.224Z,1005.81
2019-04-23T13:13:01.454Z,1005.90
2019-04-23T13:13:58.730Z,1005.70
2019-04-23T13:14:57.334Z,1005.70
2019-04-23T13:15:51.875Z,1005.67
2019-04-23T13:17:01.869Z,1005.69
2019-04-23T13:18:50.094Z,1005.76
2019-04-23T13:20:00.190Z,1005.58
2019-04-23T13:20:53.953Z,1005.64
2019-04-23T13:23:49.416Z,1005.70
2019-04-23T13:24:55.296Z,1005.65
2019-04-23T13:25:55.830Z,1005.59
2019-04-23T13:26:56.081Z,1005.55
2019-04-23T13:28:02.717Z,1005.54
2019-04-23T13:28:51.023Z,1005.49
2019-04-23T13:30:00.304Z,1005.46
2019-04-23T13:31:50.229Z,1005.51
2019-04-23T13:33:02.672Z,1005.54
2019-04-23T13:35:12.851Z,1005.55
2019-04-23T13:36:53.600Z,1005.40
2019-04-23T13:38:47.298Z,1005.31
2019-04-23T13:39:54.080Z,1005.27
2019-04-23T13:41:54.053Z,1005.24
2019-04-23T13:43:02.894Z,1005.29
2019-04-23T13:44:00.178Z,1005.35
2019-04-23T13:44:55.911Z,1005.35
2019-04-23T13:47:00.805Z,1005.41
2019-04-23T13:48:03.466Z,1005.40
2019-04-23T13:48:48.971Z,1005.42
2019-04-23T13:50:00.237Z,1005.20
2019-04-23T13:51:54.994Z,1005.36
2019-04-23T13:53:07.886Z,1005.35
2019-04-23T13:53:53.630Z,1005.24
2019-04-23T13:55:04.294Z,1005.26
2019-04-23T13:55:53.023Z,1005.28
2019-04-23T13:57:25.561Z,1005.19
2019-04-23T13:58:07.430Z,1005.24
2019-04-23T13:58:57.743Z,1005.20
2019-04-23T13:59:52.336Z,1005.10
2019-04-23T14:01:00.917Z,1005.28
2019-04-23T14:01:46.838Z,1005.12
2019-04-23T14:02:54.769Z,1005.14
2019-04-23T14:04:11.959Z,1005.15
2019-04-23T14:05:02.581Z,1005.00
2019-04-23T14:06:01.792Z,1005.08
2019-04-23T14:08:00.821Z,1005.12
2019-04-23T14:10:08.411Z,1005.04
2019-04-23T14:11:16.042Z,1005.18
2019-04-23T14:11:46.676Z,1005.00
2019-04-23T14:13:08.691Z,1005.09
2019-04-23T14:14:00.044Z,1005.02
2019-04-23T14:14:56.298Z,1005.01
2019-04-23T14:16:13.830Z,1005.04
2019-04-23T14:17:18.103Z,1004.93
2019-04-23T14:18:11.030Z,1005.04
2019-04-23T14:19:53.192Z,1005.02
2019-04-23T14:20:55.408Z,1004.97
2019-04-23T14:21:53.216Z,1005.05
2019-04-23T14:23:08.271Z,1005.08
2019-04-23T14:24:11.900Z,1005.00
2019-04-23T14:26:10.890Z,1005.01
2019-04-23T14:26:50.595Z,1005.01
2019-04-23T14:27:56.342Z,1005.04
2019-04-23T14:32:53.708Z,1005.01
2019-04-23T14:35:04.255Z,1005.03
2019-04-23T14:35:49.785Z,1004.95
2019-04-23T14:36:57.767Z,1005.01
2019-04-23T14:38:11.323Z,1005.04
2019-04-23T14:39:16.309Z,1005.01
2019-04-23T14:39:56.028Z,1004.99
2019-04-23T14:41:06.150Z,1005.05
2019-04-23T14:42:02.768Z,1005.01
2019-04-23T14:43:03.564Z,1004.95
2019-04-23T14:44:03.675Z,1004.93
2019-04-23T14:45:02.701Z,1004.91
2019-04-23T14:46:27.078Z,1004.92
2019-04-23T14:46:58.283Z,1004.88
2019-04-23T14:47:59.055Z,1004.87
2019-04-23T14:50:18.671Z,1005.01
2019-04-23T14:50:51.705Z,1004.89
2019-04-23T14:52:02.384Z,1004.86
2019-04-23T14:52:58.900Z,1004.89
2019-04-23T14:53:48.460Z,1004.81